Briefing drone pour Tain-l'hermitage

Rechercher une autre localisation

Conditions de vol :


Nous sommes le : Jeudi 01 octobre 2020
Il est 16:04 UTC (18:04 LT)

Lever de soleil : 05:12 UTC (07:12 LT)
Coucher de soleil : 17:47 UTC (19:47 LT)

Météo

L'essentiel des conditions de vol

VIGILANCE MÉTÉO FRANCE - Drôme (26)
Vigilance Jaune : Orages / Pluie-inondation / Vent violent / Inondation
METAR de LFLU
LFLU 011530Z AUTO 24005KT 9999 FEW070 OVC100 19/15 Q1006

Date d'émission: 01/10/2020
Heure d'émission: 15:30 UTC
Vent: 240° pour 5 KT (9 km/h)
Visibilité horizontale: > 10 km
Plafond :
- Peu de nuages à 7000ft (2134m)
- Couvert à 10000ft (3048m)
Température: 19 °C
Point de rosée: 15 °C
Humidité: 78%
Pression (QNH): 1006 hPa
Prévision 24h pour Valence (10 km)
Vent : 156° pour 8 KT (29 km/h)
Temperature Maxi: 17 °C
Temperature Min: 17 °C
Humidité : 80%
Condition : Pluie modérée



Warning: count(): Parameter must be an array or an object that implements Countable in /homepages/6/d509196549/htdocs/droneoxygene/briefing.php on line 743
WEBCAM POUR TAIN-L'HERMITAGE

Réglementation

Voler en sécurité

CARTES AERONAUTIQUE 1/500.000
CARTES VAC (LFLU)
SUP AIP




Chargement des AIP...
NOTAM (TAIN-L'HERMITAGE + Terrain à proximité / FIR )




Chargement des NOTAMS...
CONTACT PREFECTURE 26
Drôme (26) : ddt-sdsr@drome.gouv.fr


Avertissement : Les données mises à disposition sont indicatives. Oxygène Drone ne pourra être tenu responsable de dégâts causés aux biens et aux personnes.